EJA906 RJFK-RJOO
Flight info
| Callsign | EJA906 |
|---|---|
| Flight time | 0h 50m |
| Altitude | 41000 |
| Route | MIDAI M750 MADOG Y753 IZUMI |
| Aircraft | C750/M-SBDE3FGHRWXY/S |
Departure
| Time | 2026-04-30 12:27 |
|---|---|
| Airport | Kagoshima Airport (RJFK) |
Arrival
| Time | 2026-04-30 13:17 |
|---|---|
| Airport | Osaka Itami International Airport (RJOO) |
| Time | Latitude | Longitude | Altitude | Speed | Heading |
|---|---|---|---|---|---|
| 2026-04-30 12:05 | 31.79700 | 130.71960 | 881 ft | 0 kts | 240° |
| 2026-04-30 12:18 | 31.79700 | 130.71959 | 881 ft | 0 kts | 240° |
| 2026-04-30 12:19 | 31.79699 | 130.71959 | 881 ft | 0 kts | 240° |
| 2026-04-30 12:20 | 31.79697 | 130.71953 | 881 ft | 1 kts | 240° |
| 2026-04-30 12:20 | 31.79695 | 130.71938 | 881 ft | 2 kts | 274° |
| 2026-04-30 12:21 | 31.79706 | 130.71928 | 881 ft | 3 kts | 42° |
| 2026-04-30 12:21 | 31.79737 | 130.71976 | 882 ft | 11 kts | 59° |
| 2026-04-30 12:21 | 31.79755 | 130.72090 | 880 ft | 18 kts | 118° |
| 2026-04-30 12:21 | 31.79643 | 130.72185 | 876 ft | 21 kts | 150° |
| 2026-04-30 12:22 | 31.79508 | 130.72276 | 870 ft | 24 kts | 150° |
| 2026-04-30 12:22 | 31.79354 | 130.72380 | 863 ft | 26 kts | 148° |
| 2026-04-30 12:22 | 31.79223 | 130.72470 | 859 ft | 16 kts | 150° |
| 2026-04-30 12:22 | 31.79147 | 130.72520 | 856 ft | 4 kts | 150° |
| 2026-04-30 12:23 | 31.79123 | 130.72542 | 856 ft | 0 kts | 131° |
| 2026-04-30 12:23 | 31.79122 | 130.72543 | 855 ft | 0 kts | 124° |
| 2026-04-30 12:23 | 31.79116 | 130.72554 | 855 ft | 3 kts | 124° |
| 2026-04-30 12:23 | 31.79097 | 130.72586 | 854 ft | 6 kts | 125° |
| 2026-04-30 12:24 | 31.79092 | 130.72595 | 854 ft | 0 kts | 125° |
| 2026-04-30 12:24 | 31.79092 | 130.72598 | 854 ft | 0 kts | 45° |
| 2026-04-30 12:26 | 31.79113 | 130.72623 | 854 ft | 12 kts | 46° |
| 2026-04-30 12:26 | 31.79186 | 130.72711 | 854 ft | 12 kts | 359° |
| 2026-04-30 12:26 | 31.79295 | 130.72644 | 857 ft | 44 kts | 327° |
| 2026-04-30 12:27 | 31.79909 | 130.72224 | 878 ft | 152 kts | 331° |
| 2026-04-30 12:27 | 31.80972 | 130.71555 | 1576 ft | 192 kts | 332° |
| 2026-04-30 12:27 | 31.82265 | 130.70804 | 2550 ft | 220 kts | 336° |
| 2026-04-30 12:27 | 31.83680 | 130.70193 | 3868 ft | 231 kts | 356° |
| 2026-04-30 12:28 | 31.85260 | 130.70668 | 5001 ft | 253 kts | 34° |
| 2026-04-30 12:28 | 31.86389 | 130.72314 | 6028 ft | 277 kts | 70° |
| 2026-04-30 12:28 | 31.86537 | 130.74587 | 7099 ft | 290 kts | 106° |
| 2026-04-30 12:28 | 31.85621 | 130.76622 | 8347 ft | 292 kts | 133° |
| 2026-04-30 12:29 | 31.84541 | 130.78654 | 9609 ft | 308 kts | 113° |
| 2026-04-30 12:29 | 31.83808 | 130.81021 | 10716 ft | 316 kts | 126° |
| 2026-04-30 12:29 | 31.82272 | 130.82811 | 11583 ft | 317 kts | 157° |
| 2026-04-30 12:29 | 31.80282 | 130.83913 | 12587 ft | 329 kts | 158° |
| 2026-04-30 12:30 | 31.78305 | 130.85344 | 13743 ft | 337 kts | 158° |
| 2026-04-30 12:30 | 31.76315 | 130.86766 | 14904 ft | 341 kts | 157° |
| 2026-04-30 12:30 | 31.74300 | 130.88213 | 15954 ft | 347 kts | 158° |
| 2026-04-30 12:30 | 31.72251 | 130.89693 | 17031 ft | 350 kts | 159° |
| 2026-04-30 12:31 | 31.70171 | 130.91190 | 18047 ft | 354 kts | 159° |
| 2026-04-30 12:31 | 31.68057 | 130.92706 | 18993 ft | 359 kts | 159° |
| 2026-04-30 12:31 | 31.65953 | 130.94217 | 20008 ft | 360 kts | 159° |
| 2026-04-30 12:31 | 31.63810 | 130.95775 | 20731 ft | 372 kts | 156° |
| 2026-04-30 12:32 | 31.61906 | 130.98114 | 21078 ft | 422 kts | 130° |
| 2026-04-30 12:32 | 31.60892 | 131.01396 | 22100 ft | 443 kts | 107° |
| 2026-04-30 12:32 | 31.60972 | 131.04979 | 23231 ft | 453 kts | 84° |
| 2026-04-30 12:32 | 31.61492 | 131.08597 | 23961 ft | 452 kts | 95° |
| 2026-04-30 12:33 | 31.61222 | 131.12234 | 24604 ft | 453 kts | 101° |
| 2026-04-30 12:33 | 31.61142 | 131.15971 | 25315 ft | 460 kts | 99° |
| 2026-04-30 12:33 | 31.61039 | 131.19733 | 25956 ft | 467 kts | 98° |
| 2026-04-30 12:33 | 31.60936 | 131.23570 | 26547 ft | 474 kts | 98° |
| 2026-04-30 12:34 | 31.60841 | 131.27428 | 27208 ft | 479 kts | 98° |
| 2026-04-30 12:34 | 31.60735 | 131.31331 | 27814 ft | 484 kts | 98° |
| 2026-04-30 12:34 | 31.60736 | 131.35310 | 28408 ft | 496 kts | 89° |
| 2026-04-30 12:34 | 31.61656 | 131.39285 | 28920 ft | 512 kts | 67° |
| 2026-04-30 12:35 | 31.63458 | 131.42837 | 29526 ft | 516 kts | 56° |
| 2026-04-30 12:35 | 31.65388 | 131.46451 | 30098 ft | 521 kts | 58° |
| 2026-04-30 12:35 | 31.67274 | 131.50066 | 30648 ft | 525 kts | 59° |
| 2026-04-30 12:35 | 31.69144 | 131.53726 | 31169 ft | 529 kts | 60° |
| 2026-04-30 12:36 | 31.71047 | 131.57443 | 31679 ft | 534 kts | 60° |
| 2026-04-30 12:36 | 31.72943 | 131.61160 | 32190 ft | 537 kts | 60° |
| 2026-04-30 12:36 | 31.74871 | 131.64960 | 32672 ft | 542 kts | 60° |
| 2026-04-30 12:36 | 31.76792 | 131.68716 | 33173 ft | 545 kts | 60° |
| 2026-04-30 12:37 | 31.78742 | 131.72562 | 33647 ft | 549 kts | 61° |
| 2026-04-30 12:37 | 31.80689 | 131.76392 | 34128 ft | 552 kts | 61° |
| 2026-04-30 12:37 | 31.82668 | 131.80290 | 34773 ft | 552 kts | 60° |
| 2026-04-30 12:37 | 31.84604 | 131.84109 | 35544 ft | 549 kts | 61° |
| 2026-04-30 12:38 | 31.86567 | 131.87997 | 36166 ft | 549 kts | 60° |
| 2026-04-30 12:38 | 31.88520 | 131.91840 | 36781 ft | 548 kts | 60° |
| 2026-04-30 12:38 | 31.90459 | 131.95695 | 37392 ft | 547 kts | 61° |
| 2026-04-30 12:38 | 31.92389 | 131.99501 | 37980 ft | 546 kts | 62° |
| 2026-04-30 12:39 | 31.94329 | 132.03343 | 38571 ft | 545 kts | 61° |
| 2026-04-30 12:39 | 31.96276 | 132.07217 | 39129 ft | 544 kts | 62° |
| 2026-04-30 12:39 | 31.98187 | 132.11017 | 39739 ft | 542 kts | 61° |
| 2026-04-30 12:39 | 32.00124 | 132.14877 | 40353 ft | 540 kts | 60° |
| 2026-04-30 12:40 | 32.02027 | 132.18660 | 40805 ft | 541 kts | 60° |
| 2026-04-30 12:40 | 32.03961 | 132.22514 | 40823 ft | 548 kts | 61° |
| 2026-04-30 12:40 | 32.07913 | 132.30385 | 40829 ft | 564 kts | 60° |
| 2026-04-30 12:41 | 32.11944 | 132.38455 | 40805 ft | 578 kts | 60° |
| 2026-04-30 12:41 | 32.16048 | 132.46672 | 40832 ft | 588 kts | 53° |
| 2026-04-30 12:42 | 32.20562 | 132.54858 | 40805 ft | 600 kts | 59° |
| 2026-04-30 12:42 | 32.24999 | 132.63289 | 40824 ft | 606 kts | 59° |
| 2026-04-30 12:43 | 32.29400 | 132.71687 | 40811 ft | 606 kts | 59° |
| 2026-04-30 12:43 | 32.33843 | 132.80158 | 40817 ft | 605 kts | 59° |
| 2026-04-30 12:44 | 32.38267 | 132.88641 | 40816 ft | 605 kts | 59° |
| 2026-04-30 12:44 | 32.42671 | 132.97082 | 40822 ft | 605 kts | 60° |
| 2026-04-30 12:45 | 32.47076 | 133.05553 | 40829 ft | 605 kts | 59° |
| 2026-04-30 12:45 | 32.51456 | 133.13998 | 40830 ft | 604 kts | 59° |
| 2026-04-30 12:46 | 32.55866 | 133.22522 | 40841 ft | 604 kts | 59° |
| 2026-04-30 12:46 | 32.60242 | 133.31000 | 40840 ft | 605 kts | 59° |
| 2026-04-30 12:47 | 32.64628 | 133.39500 | 40845 ft | 604 kts | 59° |
| 2026-04-30 12:47 | 32.68933 | 133.48062 | 40848 ft | 604 kts | 60° |
| 2026-04-30 12:48 | 32.73238 | 133.56692 | 40847 ft | 605 kts | 60° |
| 2026-04-30 12:48 | 32.77503 | 133.65248 | 40848 ft | 606 kts | 61° |
| 2026-04-30 12:49 | 32.81789 | 133.73886 | 40822 ft | 605 kts | 61° |
| 2026-04-30 12:49 | 32.86045 | 133.82478 | 40838 ft | 605 kts | 61° |
| 2026-04-30 12:50 | 32.90306 | 133.91087 | 40832 ft | 605 kts | 60° |
| 2026-04-30 12:50 | 32.94541 | 133.99678 | 40847 ft | 605 kts | 60° |
| 2026-04-30 12:51 | 32.98809 | 134.08350 | 40853 ft | 604 kts | 60° |
| 2026-04-30 12:51 | 33.03037 | 134.16960 | 40865 ft | 605 kts | 60° |
| 2026-04-30 12:52 | 33.07763 | 134.25043 | 40759 ft | 577 kts | 41° |
| 2026-04-30 12:52 | 33.10769 | 134.28133 | 39902 ft | 561 kts | 37° |
| 2026-04-30 12:52 | 33.13711 | 134.31099 | 39171 ft | 547 kts | 37° |
| 2026-04-30 12:53 | 33.16567 | 134.33998 | 38526 ft | 533 kts | 38° |
| 2026-04-30 12:53 | 33.19346 | 134.36833 | 37908 ft | 527 kts | 37° |
| 2026-04-30 12:53 | 33.22109 | 134.39658 | 37289 ft | 522 kts | 37° |
| 2026-04-30 12:53 | 33.24866 | 134.42479 | 36609 ft | 519 kts | 37° |
| 2026-04-30 12:54 | 33.27586 | 134.45256 | 35876 ft | 518 kts | 37° |
| 2026-04-30 12:54 | 33.30325 | 134.48084 | 35136 ft | 516 kts | 37° |
| 2026-04-30 12:54 | 33.33015 | 134.50832 | 34491 ft | 512 kts | 37° |
| 2026-04-30 12:54 | 33.35702 | 134.53595 | 33894 ft | 509 kts | 36° |
| 2026-04-30 12:55 | 33.38437 | 134.56413 | 33357 ft | 524 kts | 37° |
| 2026-04-30 12:55 | 33.41249 | 134.59285 | 32816 ft | 545 kts | 37° |
| 2026-04-30 12:55 | 33.44177 | 134.62299 | 32221 ft | 564 kts | 38° |
| 2026-04-30 12:55 | 33.47163 | 134.65384 | 31688 ft | 575 kts | 38° |
| 2026-04-30 12:56 | 33.50186 | 134.68506 | 31470 ft | 572 kts | 38° |
| 2026-04-30 12:56 | 33.53187 | 134.71608 | 30654 ft | 578 kts | 39° |
| 2026-04-30 12:56 | 33.56206 | 134.74724 | 29961 ft | 571 kts | 39° |
| 2026-04-30 12:56 | 33.59179 | 134.77757 | 29249 ft | 562 kts | 36° |
| 2026-04-30 12:57 | 33.62454 | 134.80226 | 28493 ft | 552 kts | 28° |
| 2026-04-30 12:57 | 33.65699 | 134.82642 | 27736 ft | 545 kts | 28° |
| 2026-04-30 12:57 | 33.68851 | 134.84946 | 26934 ft | 524 kts | 28° |
| 2026-04-30 12:57 | 33.71901 | 134.87195 | 26263 ft | 500 kts | 28° |
| 2026-04-30 12:58 | 33.74780 | 134.89319 | 25603 ft | 480 kts | 28° |
| 2026-04-30 12:58 | 33.77565 | 134.91371 | 24969 ft | 461 kts | 28° |
| 2026-04-30 12:58 | 33.80268 | 134.93368 | 24308 ft | 454 kts | 28° |
| 2026-04-30 12:58 | 33.82954 | 134.95360 | 23641 ft | 454 kts | 28° |
| 2026-04-30 12:59 | 33.85607 | 134.97313 | 22975 ft | 453 kts | 29° |
| 2026-04-30 12:59 | 33.88290 | 134.99310 | 22342 ft | 449 kts | 29° |
| 2026-04-30 12:59 | 33.90913 | 135.01253 | 21726 ft | 444 kts | 28° |
| 2026-04-30 12:59 | 33.93521 | 135.03186 | 21116 ft | 439 kts | 28° |
| 2026-04-30 13:00 | 33.96095 | 135.05100 | 20510 ft | 433 kts | 29° |
| 2026-04-30 13:00 | 33.98629 | 135.06981 | 19903 ft | 426 kts | 29° |
| 2026-04-30 13:00 | 34.01146 | 135.08850 | 19289 ft | 419 kts | 28° |
| 2026-04-30 13:00 | 34.03581 | 135.10661 | 18681 ft | 411 kts | 28° |
| 2026-04-30 13:01 | 34.06006 | 135.12474 | 18057 ft | 404 kts | 28° |
| 2026-04-30 13:01 | 34.08378 | 135.14235 | 17457 ft | 397 kts | 28° |
| 2026-04-30 13:01 | 34.10687 | 135.15956 | 16873 ft | 390 kts | 28° |
| 2026-04-30 13:01 | 34.12966 | 135.17662 | 16275 ft | 384 kts | 28° |
| 2026-04-30 13:02 | 34.15259 | 135.19367 | 15694 ft | 389 kts | 29° |
| 2026-04-30 13:02 | 34.17557 | 135.21071 | 15109 ft | 395 kts | 29° |
| 2026-04-30 13:02 | 34.19907 | 135.22836 | 14462 ft | 401 kts | 29° |
| 2026-04-30 13:02 | 34.22288 | 135.24631 | 13875 ft | 402 kts | 31° |
| 2026-04-30 13:03 | 34.24579 | 135.26514 | 13415 ft | 401 kts | 32° |
| 2026-04-30 13:03 | 34.26895 | 135.28398 | 12771 ft | 404 kts | 32° |
| 2026-04-30 13:03 | 34.29216 | 135.30290 | 12160 ft | 404 kts | 33° |
| 2026-04-30 13:03 | 34.31568 | 135.32220 | 11232 ft | 412 kts | 34° |
| 2026-04-30 13:04 | 34.33949 | 135.34175 | 10553 ft | 409 kts | 34° |
| 2026-04-30 13:04 | 34.36172 | 135.35998 | 9641 ft | 376 kts | 35° |
| 2026-04-30 13:04 | 34.38245 | 135.37688 | 8546 ft | 349 kts | 36° |
| 2026-04-30 13:04 | 34.40179 | 135.39272 | 7580 ft | 324 kts | 38° |
| 2026-04-30 13:05 | 34.41978 | 135.40749 | 7272 ft | 297 kts | 39° |
| 2026-04-30 13:05 | 34.43637 | 135.42154 | 7347 ft | 292 kts | 44° |
| 2026-04-30 13:05 | 34.44877 | 135.44043 | 7040 ft | 293 kts | 68° |
| 2026-04-30 13:06 | 34.46755 | 135.48209 | 6939 ft | 266 kts | 67° |
| 2026-04-30 13:06 | 34.47637 | 135.50136 | 6933 ft | 255 kts | 67° |
| 2026-04-30 13:06 | 34.48491 | 135.52002 | 6939 ft | 249 kts | 67° |
| 2026-04-30 13:06 | 34.49323 | 135.53807 | 6642 ft | 247 kts | 68° |
| 2026-04-30 13:07 | 34.50162 | 135.55631 | 6018 ft | 249 kts | 68° |
| 2026-04-30 13:07 | 34.50995 | 135.57463 | 5290 ft | 253 kts | 67° |
| 2026-04-30 13:07 | 34.51844 | 135.59309 | 4698 ft | 250 kts | 67° |
| 2026-04-30 13:07 | 34.52689 | 135.61144 | 4245 ft | 240 kts | 68° |
| 2026-04-30 13:08 | 34.53467 | 135.62831 | 4047 ft | 222 kts | 68° |
| 2026-04-30 13:08 | 34.54219 | 135.64410 | 3888 ft | 212 kts | 62° |
| 2026-04-30 13:08 | 34.55463 | 135.65414 | 3767 ft | 229 kts | 20° |
| 2026-04-30 13:08 | 34.57093 | 135.65442 | 3706 ft | 236 kts | 3° |
| 2026-04-30 13:09 | 34.58708 | 135.65324 | 3695 ft | 232 kts | 2° |
| 2026-04-30 13:09 | 34.60303 | 135.65096 | 3686 ft | 227 kts | 353° |
| 2026-04-30 13:09 | 34.61650 | 135.64142 | 3708 ft | 225 kts | 316° |
| 2026-04-30 13:09 | 34.62680 | 135.62778 | 3702 ft | 215 kts | 315° |
| 2026-04-30 13:10 | 34.63687 | 135.61502 | 3691 ft | 198 kts | 316° |
| 2026-04-30 13:10 | 34.64597 | 135.60373 | 3499 ft | 185 kts | 317° |
| 2026-04-30 13:10 | 34.65505 | 135.59274 | 3254 ft | 179 kts | 318° |
| 2026-04-30 13:10 | 34.66370 | 135.58235 | 3033 ft | 173 kts | 318° |
| 2026-04-30 13:11 | 34.67219 | 135.57211 | 2799 ft | 170 kts | 319° |
| 2026-04-30 13:11 | 34.68047 | 135.56207 | 2568 ft | 168 kts | 320° |
| 2026-04-30 13:11 | 34.68874 | 135.55220 | 2350 ft | 165 kts | 320° |
| 2026-04-30 13:11 | 34.69690 | 135.54239 | 2137 ft | 163 kts | 320° |
| 2026-04-30 13:12 | 34.70489 | 135.53278 | 1914 ft | 162 kts | 320° |
| 2026-04-30 13:12 | 34.71279 | 135.52327 | 1686 ft | 160 kts | 320° |
| 2026-04-30 13:12 | 34.72063 | 135.51366 | 1508 ft | 157 kts | 320° |
| 2026-04-30 13:13 | 34.73550 | 135.49371 | 1623 ft | 169 kts | 303° |
| 2026-04-30 13:13 | 34.74086 | 135.48071 | 1609 ft | 174 kts | 297° |
| 2026-04-30 13:13 | 34.75160 | 135.45346 | 1552 ft | 178 kts | 297° |
| 2026-04-30 13:14 | 34.75709 | 135.44016 | 1474 ft | 176 kts | 299° |
| 2026-04-30 13:14 | 34.76226 | 135.42693 | 1390 ft | 173 kts | 300° |
| 2026-04-30 13:14 | 34.77445 | 135.40401 | 1347 ft | 152 kts | 313° |
| 2026-04-30 13:15 | 34.78101 | 135.39395 | 1188 ft | 148 kts | 314° |
| 2026-04-30 13:15 | 34.79651 | 135.38109 | 831 ft | 128 kts | 11° |
| 2026-04-30 13:15 | 34.80428 | 135.38500 | 739 ft | 121 kts | 53° |
| 2026-04-30 13:16 | 34.80666 | 135.39438 | 638 ft | 120 kts | 100° |
| 2026-04-30 13:16 | 34.80397 | 135.40395 | 541 ft | 123 kts | 107° |
| 2026-04-30 13:16 | 34.80078 | 135.41376 | 402 ft | 125 kts | 111° |
| 2026-04-30 13:17 | 34.79033 | 135.42975 | 85 ft | 125 kts | 127° |
| 2026-04-30 13:17 | 34.78456 | 135.43663 | 36 ft | 103 kts | 129° |
| 2026-04-30 13:17 | 34.77846 | 135.44438 | 27 ft | 31 kts | 124° |
| 2026-04-30 13:18 | 34.77745 | 135.44661 | 27 ft | 22 kts | 114° |
| 2026-04-30 13:18 | 34.77835 | 135.44762 | 27 ft | 7 kts | 321° |